sensor_id;sensor_type;location;lat;lon;timestamp;temperature;humidity
36924;DHT22;22841;50.252;18.688;2023-09-07T00:00:05;14.60;99.90
36924;DHT22;22841;50.252;18.688;2023-09-07T00:02:32;14.60;99.90
36924;DHT22;22841;50.252;18.688;2023-09-07T00:04:58;14.50;99.90
36924;DHT22;22841;50.252;18.688;2023-09-07T00:07:24;14.50;99.90
36924;DHT22;22841;50.252;18.688;2023-09-07T00:09:50;14.50;99.90
36924;DHT22;22841;50.252;18.688;2023-09-07T00:12:16;14.50;99.90
36924;DHT22;22841;50.252;18.688;2023-09-07T00:14:44;14.50;99.90
36924;DHT22;22841;50.252;18.688;2023-09-07T00:17:12;14.40;99.90
36924;DHT22;22841;50.252;18.688;2023-09-07T00:19:38;14.40;99.90
36924;DHT22;22841;50.252;18.688;2023-09-07T00:22:04;14.40;99.90
36924;DHT22;22841;50.252;18.688;2023-09-07T00:24:30;14.40;99.90
36924;DHT22;22841;50.252;18.688;2023-09-07T00:26:59;14.30;99.90
36924;DHT22;22841;50.252;18.688;2023-09-07T00:29:26;14.30;99.90
36924;DHT22;22841;50.252;18.688;2023-09-07T00:31:52;14.30;99.90
36924;DHT22;22841;50.252;18.688;2023-09-07T00:34:18;14.30;99.90
36924;DHT22;22841;50.252;18.688;2023-09-07T00:36:44;14.30;99.90
36924;DHT22;22841;50.252;18.688;2023-09-07T00:39:10;14.30;99.90
36924;DHT22;22841;50.252;18.688;2023-09-07T00:41:36;14.30;99.90
36924;DHT22;22841;50.252;18.688;2023-09-07T00:44:02;14.30;99.90
36924;DHT22;22841;50.252;18.688;2023-09-07T00:46:28;14.20;99.90
36924;DHT22;22841;50.252;18.688;2023-09-07T00:48:55;14.20;99.90
36924;DHT22;22841;50.252;18.688;2023-09-07T00:51:21;14.10;99.90
36924;DHT22;22841;50.252;18.688;2023-09-07T00:53:48;14.10;99.90
36924;DHT22;22841;50.252;18.688;2023-09-07T00:56:15;14.10;99.90
36924;DHT22;22841;50.252;18.688;2023-09-07T00:58:42;14.10;99.90
36924;DHT22;22841;50.252;18.688;2023-09-07T01:01:08;14.10;99.90
36924;DHT22;22841;50.252;18.688;2023-09-07T01:03:35;14.00;99.90
36924;DHT22;22841;50.252;18.688;2023-09-07T01:06:12;13.90;99.90
36924;DHT22;22841;50.252;18.688;2023-09-07T01:08:46;13.90;99.90
36924;DHT22;22841;50.252;18.688;2023-09-07T01:11:16;13.90;99.90
36924;DHT22;22841;50.252;18.688;2023-09-07T01:13:43;13.90;99.90
36924;DHT22;22841;50.252;18.688;2023-09-07T01:16:13;13.80;99.90
36924;DHT22;22841;50.252;18.688;2023-09-07T01:18:39;13.80;99.90
36924;DHT22;22841;50.252;18.688;2023-09-07T01:21:09;13.70;99.90
36924;DHT22;22841;50.252;18.688;2023-09-07T01:23:39;13.80;99.90
36924;DHT22;22841;50.252;18.688;2023-09-07T01:26:06;13.80;99.90
36924;DHT22;22841;50.252;18.688;2023-09-07T01:28:33;13.70;99.90
36924;DHT22;22841;50.252;18.688;2023-09-07T01:30:59;13.70;99.90
36924;DHT22;22841;50.252;18.688;2023-09-07T01:33:27;13.70;99.90
36924;DHT22;22841;50.252;18.688;2023-09-07T01:35:53;13.70;99.90
36924;DHT22;22841;50.252;18.688;2023-09-07T01:38:19;13.60;99.90
36924;DHT22;22841;50.252;18.688;2023-09-07T01:40:47;13.60;99.90
36924;DHT22;22841;50.252;18.688;2023-09-07T01:43:13;13.60;99.90
36924;DHT22;22841;50.252;18.688;2023-09-07T01:45:39;13.60;99.90
36924;DHT22;22841;50.252;18.688;2023-09-07T01:48:10;13.50;99.90
36924;DHT22;22841;50.252;18.688;2023-09-07T01:50:36;13.50;99.90
36924;DHT22;22841;50.252;18.688;2023-09-07T01:53:03;13.50;99.90
36924;DHT22;22841;50.252;18.688;2023-09-07T01:55:34;13.50;99.90
36924;DHT22;22841;50.252;18.688;2023-09-07T01:58:00;13.50;99.90
36924;DHT22;22841;50.252;18.688;2023-09-07T02:00:26;13.50;99.90
36924;DHT22;22841;50.252;18.688;2023-09-07T02:02:52;13.50;99.90
36924;DHT22;22841;50.252;18.688;2023-09-07T02:05:18;13.40;99.90
36924;DHT22;22841;50.252;18.688;2023-09-07T02:07:45;13.40;99.90
36924;DHT22;22841;50.252;18.688;2023-09-07T02:10:12;13.40;99.90
36924;DHT22;22841;50.252;18.688;2023-09-07T02:12:38;13.30;99.90
36924;DHT22;22841;50.252;18.688;2023-09-07T02:15:04;13.40;99.90
36924;DHT22;22841;50.252;18.688;2023-09-07T02:17:31;13.30;99.90
36924;DHT22;22841;50.252;18.688;2023-09-07T02:19:58;13.30;99.90
36924;DHT22;22841;50.252;18.688;2023-09-07T02:22:24;13.30;99.90
36924;DHT22;22841;50.252;18.688;2023-09-07T02:24:50;13.20;99.90
36924;DHT22;22841;50.252;18.688;2023-09-07T02:27:16;13.30;99.90
36924;DHT22;22841;50.252;18.688;2023-09-07T02:29:42;13.20;99.90
36924;DHT22;22841;50.252;18.688;2023-09-07T02:32:08;13.20;99.90
36924;DHT22;22841;50.252;18.688;2023-09-07T02:34:35;13.20;99.90
36924;DHT22;22841;50.252;18.688;2023-09-07T02:37:03;13.10;99.90
36924;DHT22;22841;50.252;18.688;2023-09-07T02:39:29;13.10;99.90
36924;DHT22;22841;50.252;18.688;2023-09-07T02:41:55;13.10;99.90
36924;DHT22;22841;50.252;18.688;2023-09-07T02:44:21;13.10;99.90
36924;DHT22;22841;50.252;18.688;2023-09-07T02:46:47;13.10;99.90
36924;DHT22;22841;50.252;18.688;2023-09-07T02:49:13;13.00;99.90
36924;DHT22;22841;50.252;18.688;2023-09-07T02:51:39;13.10;99.90
36924;DHT22;22841;50.252;18.688;2023-09-07T02:54:05;13.00;99.90
36924;DHT22;22841;50.252;18.688;2023-09-07T02:56:32;13.00;99.90
36924;DHT22;22841;50.252;18.688;2023-09-07T02:58:58;13.00;99.90
36924;DHT22;22841;50.252;18.688;2023-09-07T03:01:24;13.00;99.90
36924;DHT22;22841;50.252;18.688;2023-09-07T03:03:50;12.90;99.90
36924;DHT22;22841;50.252;18.688;2023-09-07T03:06:16;12.90;99.90
36924;DHT22;22841;50.252;18.688;2023-09-07T03:08:43;12.80;99.90
36924;DHT22;22841;50.252;18.688;2023-09-07T03:11:09;12.80;99.90
36924;DHT22;22841;50.252;18.688;2023-09-07T03:13:36;12.80;99.90
36924;DHT22;22841;50.252;18.688;2023-09-07T03:16:02;12.80;99.90
36924;DHT22;22841;50.252;18.688;2023-09-07T03:18:29;12.90;99.90
36924;DHT22;22841;50.252;18.688;2023-09-07T03:20:57;12.90;99.90
36924;DHT22;22841;50.252;18.688;2023-09-07T03:23:23;12.90;99.90
36924;DHT22;22841;50.252;18.688;2023-09-07T03:25:50;12.80;99.90
36924;DHT22;22841;50.252;18.688;2023-09-07T03:28:16;12.90;99.90
36924;DHT22;22841;50.252;18.688;2023-09-07T03:30:42;12.80;99.90
36924;DHT22;22841;50.252;18.688;2023-09-07T03:33:08;12.80;99.90
36924;DHT22;22841;50.252;18.688;2023-09-07T03:35:34;12.70;99.90
36924;DHT22;22841;50.252;18.688;2023-09-07T03:38:01;12.70;99.90
36924;DHT22;22841;50.252;18.688;2023-09-07T03:40:27;12.70;99.90
36924;DHT22;22841;50.252;18.688;2023-09-07T03:42:53;12.70;99.90
36924;DHT22;22841;50.252;18.688;2023-09-07T03:45:19;12.60;99.90
36924;DHT22;22841;50.252;18.688;2023-09-07T03:47:45;12.60;99.90
36924;DHT22;22841;50.252;18.688;2023-09-07T03:50:11;12.60;99.90
36924;DHT22;22841;50.252;18.688;2023-09-07T03:52:37;12.60;99.90
36924;DHT22;22841;50.252;18.688;2023-09-07T03:55:03;12.60;99.90
36924;DHT22;22841;50.252;18.688;2023-09-07T03:57:30;12.60;99.90
36924;DHT22;22841;50.252;18.688;2023-09-07T03:59:57;12.60;99.90
36924;DHT22;22841;50.252;18.688;2023-09-07T04:02:23;12.50;99.90
36924;DHT22;22841;50.252;18.688;2023-09-07T04:04:51;12.60;99.90
36924;DHT22;22841;50.252;18.688;2023-09-07T04:07:17;12.60;99.90
36924;DHT22;22841;50.252;18.688;2023-09-07T04:09:44;12.50;99.90
36924;DHT22;22841;50.252;18.688;2023-09-07T04:12:11;12.50;99.90
36924;DHT22;22841;50.252;18.688;2023-09-07T04:14:37;12.40;99.90
36924;DHT22;22841;50.252;18.688;2023-09-07T04:17:04;12.40;99.90
36924;DHT22;22841;50.252;18.688;2023-09-07T04:19:31;12.50;99.90
36924;DHT22;22841;50.252;18.688;2023-09-07T04:21:57;12.50;99.90
36924;DHT22;22841;50.252;18.688;2023-09-07T04:24:25;12.50;99.90
36924;DHT22;22841;50.252;18.688;2023-09-07T04:26:57;12.50;99.90
36924;DHT22;22841;50.252;18.688;2023-09-07T04:29:23;12.50;99.90
36924;DHT22;22841;50.252;18.688;2023-09-07T04:31:50;12.50;99.90
36924;DHT22;22841;50.252;18.688;2023-09-07T04:34:16;12.50;99.90
36924;DHT22;22841;50.252;18.688;2023-09-07T04:36:42;12.40;99.90
36924;DHT22;22841;50.252;18.688;2023-09-07T04:39:08;12.40;99.90
36924;DHT22;22841;50.252;18.688;2023-09-07T04:41:34;12.40;99.90
36924;DHT22;22841;50.252;18.688;2023-09-07T04:44:00;12.40;99.90
36924;DHT22;22841;50.252;18.688;2023-09-07T04:46:26;12.50;99.90
36924;DHT22;22841;50.252;18.688;2023-09-07T04:48:52;12.40;99.90
36924;DHT22;22841;50.252;18.688;2023-09-07T04:51:18;12.50;99.90
36924;DHT22;22841;50.252;18.688;2023-09-07T04:53:46;12.50;99.90
36924;DHT22;22841;50.252;18.688;2023-09-07T04:56:13;12.50;99.90
36924;DHT22;22841;50.252;18.688;2023-09-07T04:58:39;12.50;99.90
36924;DHT22;22841;50.252;18.688;2023-09-07T05:01:07;12.50;99.90
36924;DHT22;22841;50.252;18.688;2023-09-07T05:03:37;12.50;99.90
36924;DHT22;22841;50.252;18.688;2023-09-07T05:06:04;12.60;99.90
36924;DHT22;22841;50.252;18.688;2023-09-07T05:08:30;12.60;99.90
36924;DHT22;22841;50.252;18.688;2023-09-07T05:11:02;12.60;99.90
36924;DHT22;22841;50.252;18.688;2023-09-07T05:13:28;12.60;99.90
36924;DHT22;22841;50.252;18.688;2023-09-07T05:15:55;12.70;99.90
36924;DHT22;22841;50.252;18.688;2023-09-07T05:18:22;12.70;99.90
36924;DHT22;22841;50.252;18.688;2023-09-07T05:20:48;12.70;99.90
36924;DHT22;22841;50.252;18.688;2023-09-07T05:23:20;12.70;99.90
36924;DHT22;22841;50.252;18.688;2023-09-07T05:25:52;12.80;99.90
36924;DHT22;22841;50.252;18.688;2023-09-07T05:28:19;12.80;99.90
36924;DHT22;22841;50.252;18.688;2023-09-07T05:30:45;12.80;99.90
36924;DHT22;22841;50.252;18.688;2023-09-07T05:33:14;12.90;99.90
36924;DHT22;22841;50.252;18.688;2023-09-07T05:35:40;12.90;99.90
36924;DHT22;22841;50.252;18.688;2023-09-07T05:38:08;12.90;99.90
36924;DHT22;22841;50.252;18.688;2023-09-07T05:40:40;13.00;99.90
36924;DHT22;22841;50.252;18.688;2023-09-07T05:43:06;13.00;99.90
36924;DHT22;22841;50.252;18.688;2023-09-07T05:45:40;13.10;99.90
36924;DHT22;22841;50.252;18.688;2023-09-07T05:48:08;13.20;99.90
36924;DHT22;22841;50.252;18.688;2023-09-07T05:50:35;13.20;99.90
36924;DHT22;22841;50.252;18.688;2023-09-07T05:53:02;13.30;99.90
36924;DHT22;22841;50.252;18.688;2023-09-07T05:55:29;13.50;99.90
36924;DHT22;22841;50.252;18.688;2023-09-07T05:57:56;13.60;99.90
36924;DHT22;22841;50.252;18.688;2023-09-07T06:00:23;13.70;99.90
36924;DHT22;22841;50.252;18.688;2023-09-07T06:02:51;13.90;99.90
36924;DHT22;22841;50.252;18.688;2023-09-07T06:05:18;13.90;99.90
36924;DHT22;22841;50.252;18.688;2023-09-07T06:07:44;14.00;99.90
36924;DHT22;22841;50.252;18.688;2023-09-07T06:10:10;14.10;99.90
36924;DHT22;22841;50.252;18.688;2023-09-07T06:12:37;14.10;99.90
36924;DHT22;22841;50.252;18.688;2023-09-07T06:15:03;14.20;99.90
36924;DHT22;22841;50.252;18.688;2023-09-07T06:17:29;14.40;99.90
36924;DHT22;22841;50.252;18.688;2023-09-07T06:19:56;14.40;99.90
36924;DHT22;22841;50.252;18.688;2023-09-07T06:22:22;14.60;99.90
36924;DHT22;22841;50.252;18.688;2023-09-07T06:24:49;14.60;99.90
36924;DHT22;22841;50.252;18.688;2023-09-07T06:27:15;14.70;99.90
36924;DHT22;22841;50.252;18.688;2023-09-07T06:29:41;14.70;99.90
36924;DHT22;22841;50.252;18.688;2023-09-07T06:32:07;14.80;99.90
36924;DHT22;22841;50.252;18.688;2023-09-07T06:34:33;14.80;99.90
36924;DHT22;22841;50.252;18.688;2023-09-07T06:36:59;14.90;99.90
36924;DHT22;22841;50.252;18.688;2023-09-07T06:39:26;15.00;99.90
36924;DHT22;22841;50.252;18.688;2023-09-07T06:41:52;15.10;99.90
36924;DHT22;22841;50.252;18.688;2023-09-07T06:44:18;15.30;99.90
36924;DHT22;22841;50.252;18.688;2023-09-07T06:46:44;15.50;99.90
36924;DHT22;22841;50.252;18.688;2023-09-07T06:49:10;15.60;99.90
36924;DHT22;22841;50.252;18.688;2023-09-07T06:51:36;15.80;99.90
36924;DHT22;22841;50.252;18.688;2023-09-07T06:54:03;15.90;99.90
36924;DHT22;22841;50.252;18.688;2023-09-07T06:56:29;16.00;99.90
36924;DHT22;22841;50.252;18.688;2023-09-07T06:58:57;16.10;99.90
36924;DHT22;22841;50.252;18.688;2023-09-07T07:01:24;16.30;99.90
36924;DHT22;22841;50.252;18.688;2023-09-07T07:03:50;16.30;99.90
36924;DHT22;22841;50.252;18.688;2023-09-07T07:06:16;16.40;99.90
36924;DHT22;22841;50.252;18.688;2023-09-07T07:08:42;16.50;99.90
36924;DHT22;22841;50.252;18.688;2023-09-07T07:11:08;16.70;99.90
36924;DHT22;22841;50.252;18.688;2023-09-07T07:13:34;16.80;99.90
36924;DHT22;22841;50.252;18.688;2023-09-07T07:16:00;17.00;99.90
36924;DHT22;22841;50.252;18.688;2023-09-07T07:18:26;17.10;99.90
36924;DHT22;22841;50.252;18.688;2023-09-07T07:20:53;17.20;99.90
36924;DHT22;22841;50.252;18.688;2023-09-07T07:23:19;17.30;99.90
36924;DHT22;22841;50.252;18.688;2023-09-07T07:25:45;17.50;99.90
36924;DHT22;22841;50.252;18.688;2023-09-07T07:28:11;17.60;99.90
36924;DHT22;22841;50.252;18.688;2023-09-07T07:30:39;17.70;99.90
36924;DHT22;22841;50.252;18.688;2023-09-07T07:33:08;17.90;99.90
36924;DHT22;22841;50.252;18.688;2023-09-07T07:35:35;18.00;99.90
36924;DHT22;22841;50.252;18.688;2023-09-07T07:38:02;18.00;99.90
36924;DHT22;22841;50.252;18.688;2023-09-07T07:40:33;18.10;99.90
36924;DHT22;22841;50.252;18.688;2023-09-07T07:43:00;18.30;99.90
36924;DHT22;22841;50.252;18.688;2023-09-07T07:45:26;18.50;99.90
36924;DHT22;22841;50.252;18.688;2023-09-07T07:47:52;18.50;99.90
36924;DHT22;22841;50.252;18.688;2023-09-07T07:50:19;18.80;99.90
36924;DHT22;22841;50.252;18.688;2023-09-07T07:52:45;18.80;99.90
36924;DHT22;22841;50.252;18.688;2023-09-07T07:55:11;19.10;99.90
36924;DHT22;22841;50.252;18.688;2023-09-07T07:57:38;19.20;99.90
36924;DHT22;22841;50.252;18.688;2023-09-07T08:00:05;19.40;99.90
36924;DHT22;22841;50.252;18.688;2023-09-07T08:02:31;19.60;99.90
36924;DHT22;22841;50.252;18.688;2023-09-07T08:04:57;19.70;99.90
36924;DHT22;22841;50.252;18.688;2023-09-07T08:07:25;19.90;99.20
36924;DHT22;22841;50.252;18.688;2023-09-07T08:09:52;19.90;99.90
36924;DHT22;22841;50.252;18.688;2023-09-07T08:12:18;20.10;99.90
36924;DHT22;22841;50.252;18.688;2023-09-07T08:14:44;20.20;98.10
36924;DHT22;22841;50.252;18.688;2023-09-07T08:17:11;20.30;98.20
36924;DHT22;22841;50.252;18.688;2023-09-07T08:19:37;20.40;96.50
36924;DHT22;22841;50.252;18.688;2023-09-07T08:22:04;20.50;99.10
36924;DHT22;22841;50.252;18.688;2023-09-07T08:24:31;20.60;94.40
36924;DHT22;22841;50.252;18.688;2023-09-07T08:26:58;20.70;94.00
36924;DHT22;22841;50.252;18.688;2023-09-07T08:29:29;20.80;92.40
36924;DHT22;22841;50.252;18.688;2023-09-07T08:31:58;20.90;92.70
36924;DHT22;22841;50.252;18.688;2023-09-07T08:34:25;21.00;94.00
36924;DHT22;22841;50.252;18.688;2023-09-07T08:36:51;21.10;91.60
36924;DHT22;22841;50.252;18.688;2023-09-07T08:39:20;21.30;91.00
36924;DHT22;22841;50.252;18.688;2023-09-07T08:41:46;21.40;90.80
36924;DHT22;22841;50.252;18.688;2023-09-07T08:44:16;21.50;91.50
36924;DHT22;22841;50.252;18.688;2023-09-07T08:46:43;21.50;90.00
36924;DHT22;22841;50.252;18.688;2023-09-07T08:49:10;21.50;90.60
36924;DHT22;22841;50.252;18.688;2023-09-07T08:51:38;21.60;88.80
36924;DHT22;22841;50.252;18.688;2023-09-07T08:54:05;21.70;90.00
36924;DHT22;22841;50.252;18.688;2023-09-07T08:56:32;21.70;88.70
36924;DHT22;22841;50.252;18.688;2023-09-07T08:58:58;21.80;86.80
36924;DHT22;22841;50.252;18.688;2023-09-07T09:01:24;21.90;88.80
36924;DHT22;22841;50.252;18.688;2023-09-07T09:03:51;22.00;85.90
36924;DHT22;22841;50.252;18.688;2023-09-07T09:06:18;22.00;85.30
36924;DHT22;22841;50.252;18.688;2023-09-07T09:08:46;22.10;84.50
36924;DHT22;22841;50.252;18.688;2023-09-07T09:11:15;22.20;83.80
36924;DHT22;22841;50.252;18.688;2023-09-07T09:13:42;22.30;82.20
36924;DHT22;22841;50.252;18.688;2023-09-07T09:16:12;22.30;82.60
36924;DHT22;22841;50.252;18.688;2023-09-07T09:18:51;22.40;83.40
36924;DHT22;22841;50.252;18.688;2023-09-07T09:21:22;22.40;80.80
36924;DHT22;22841;50.252;18.688;2023-09-07T09:23:50;22.50;81.40
36924;DHT22;22841;50.252;18.688;2023-09-07T09:26:16;22.50;80.50
36924;DHT22;22841;50.252;18.688;2023-09-07T09:28:43;22.60;80.00
36924;DHT22;22841;50.252;18.688;2023-09-07T09:31:13;22.60;78.70
36924;DHT22;22841;50.252;18.688;2023-09-07T09:33:41;22.70;77.90
36924;DHT22;22841;50.252;18.688;2023-09-07T09:36:08;22.70;77.90
36924;DHT22;22841;50.252;18.688;2023-09-07T09:38:34;22.80;78.00
36924;DHT22;22841;50.252;18.688;2023-09-07T09:41:01;22.70;78.10
36924;DHT22;22841;50.252;18.688;2023-09-07T09:43:29;22.90;78.80
36924;DHT22;22841;50.252;18.688;2023-09-07T09:45:56;22.90;78.70
36924;DHT22;22841;50.252;18.688;2023-09-07T09:48:23;23.00;78.40
36924;DHT22;22841;50.252;18.688;2023-09-07T09:50:50;23.10;76.20
36924;DHT22;22841;50.252;18.688;2023-09-07T09:53:17;23.10;77.50
36924;DHT22;22841;50.252;18.688;2023-09-07T09:55:49;23.20;75.70
36924;DHT22;22841;50.252;18.688;2023-09-07T09:58:16;23.20;75.20
36924;DHT22;22841;50.252;18.688;2023-09-07T10:01:11;23.10;77.00
36924;DHT22;22841;50.252;18.688;2023-09-07T10:03:47;23.20;77.90
36924;DHT22;22841;50.252;18.688;2023-09-07T10:06:25;23.20;76.70
36924;DHT22;22841;50.252;18.688;2023-09-07T10:09:02;23.20;77.10
36924;DHT22;22841;50.252;18.688;2023-09-07T10:11:35;23.20;75.70
36924;DHT22;22841;50.252;18.688;2023-09-07T10:14:04;23.20;75.70
36924;DHT22;22841;50.252;18.688;2023-09-07T10:16:44;23.20;75.50
36924;DHT22;22841;50.252;18.688;2023-09-07T10:19:15;23.20;76.40
36924;DHT22;22841;50.252;18.688;2023-09-07T10:21:41;23.20;75.50
36924;DHT22;22841;50.252;18.688;2023-09-07T10:24:08;23.10;76.20
36924;DHT22;22841;50.252;18.688;2023-09-07T10:26:34;23.10;74.30
36924;DHT22;22841;50.252;18.688;2023-09-07T10:29:01;23.10;73.30
36924;DHT22;22841;50.252;18.688;2023-09-07T10:31:29;23.10;74.70
36924;DHT22;22841;50.252;18.688;2023-09-07T10:34:09;23.10;74.10
36924;DHT22;22841;50.252;18.688;2023-09-07T10:36:37;23.00;75.40
36924;DHT22;22841;50.252;18.688;2023-09-07T10:39:03;23.10;74.30
36924;DHT22;22841;50.252;18.688;2023-09-07T10:41:42;23.00;73.90
36924;DHT22;22841;50.252;18.688;2023-09-07T10:44:09;23.00;74.30
36924;DHT22;22841;50.252;18.688;2023-09-07T10:46:39;22.90;73.30
36924;DHT22;22841;50.252;18.688;2023-09-07T10:49:11;23.00;73.10
36924;DHT22;22841;50.252;18.688;2023-09-07T10:51:42;23.00;73.90
36924;DHT22;22841;50.252;18.688;2023-09-07T10:54:22;23.00;75.50
36924;DHT22;22841;50.252;18.688;2023-09-07T10:56:49;23.00;75.30
36924;DHT22;22841;50.252;18.688;2023-09-07T10:59:16;23.00;75.10
36924;DHT22;22841;50.252;18.688;2023-09-07T11:01:45;23.10;74.90
36924;DHT22;22841;50.252;18.688;2023-09-07T11:04:13;23.10;74.40
36924;DHT22;22841;50.252;18.688;2023-09-07T11:06:40;23.00;73.80
36924;DHT22;22841;50.252;18.688;2023-09-07T11:09:08;23.10;75.50
36924;DHT22;22841;50.252;18.688;2023-09-07T11:11:36;23.10;72.50
36924;DHT22;22841;50.252;18.688;2023-09-07T11:14:04;23.20;72.50
36924;DHT22;22841;50.252;18.688;2023-09-07T11:16:34;23.20;72.30
36924;DHT22;22841;50.252;18.688;2023-09-07T11:19:04;23.30;74.10
36924;DHT22;22841;50.252;18.688;2023-09-07T11:21:31;23.20;75.20
36924;DHT22;22841;50.252;18.688;2023-09-07T11:24:00;23.10;74.10
36924;DHT22;22841;50.252;18.688;2023-09-07T11:26:26;23.20;73.50
36924;DHT22;22841;50.252;18.688;2023-09-07T11:28:52;23.30;73.10
36924;DHT22;22841;50.252;18.688;2023-09-07T11:31:19;23.30;72.60
36924;DHT22;22841;50.252;18.688;2023-09-07T11:33:47;23.30;73.70
36924;DHT22;22841;50.252;18.688;2023-09-07T11:36:15;23.30;73.70
36924;DHT22;22841;50.252;18.688;2023-09-07T11:38:43;23.30;74.60
36924;DHT22;22841;50.252;18.688;2023-09-07T11:41:10;23.30;75.60
36924;DHT22;22841;50.252;18.688;2023-09-07T11:43:36;23.30;74.00
36924;DHT22;22841;50.252;18.688;2023-09-07T11:46:05;23.30;74.20
36924;DHT22;22841;50.252;18.688;2023-09-07T11:48:31;23.30;72.70
36924;DHT22;22841;50.252;18.688;2023-09-07T11:50:58;23.30;72.00
36924;DHT22;22841;50.252;18.688;2023-09-07T11:53:24;23.40;72.80
36924;DHT22;22841;50.252;18.688;2023-09-07T11:55:50;23.40;70.70
36924;DHT22;22841;50.252;18.688;2023-09-07T11:58:16;23.40;70.00
36924;DHT22;22841;50.252;18.688;2023-09-07T12:00:43;23.50;70.40
36924;DHT22;22841;50.252;18.688;2023-09-07T12:03:09;23.40;71.10
36924;DHT22;22841;50.252;18.688;2023-09-07T12:05:35;23.50;72.70
36924;DHT22;22841;50.252;18.688;2023-09-07T12:08:03;23.50;71.30
36924;DHT22;22841;50.252;18.688;2023-09-07T12:10:30;23.50;72.40
36924;DHT22;22841;50.252;18.688;2023-09-07T12:12:56;23.60;72.20
36924;DHT22;22841;50.252;18.688;2023-09-07T12:15:22;23.60;72.30
36924;DHT22;22841;50.252;18.688;2023-09-07T12:17:48;23.60;72.30
36924;DHT22;22841;50.252;18.688;2023-09-07T12:20:20;23.60;73.50
36924;DHT22;22841;50.252;18.688;2023-09-07T12:22:47;23.70;75.40
36924;DHT22;22841;50.252;18.688;2023-09-07T12:25:14;23.70;73.00
36924;DHT22;22841;50.252;18.688;2023-09-07T12:27:41;23.70;72.80
36924;DHT22;22841;50.252;18.688;2023-09-07T12:30:12;23.60;73.70
36924;DHT22;22841;50.252;18.688;2023-09-07T12:32:39;23.70;72.70
36924;DHT22;22841;50.252;18.688;2023-09-07T12:35:06;23.70;72.30
36924;DHT22;22841;50.252;18.688;2023-09-07T12:37:35;23.70;71.80
36924;DHT22;22841;50.252;18.688;2023-09-07T12:40:05;23.60;72.80
36924;DHT22;22841;50.252;18.688;2023-09-07T12:42:39;23.70;73.70
36924;DHT22;22841;50.252;18.688;2023-09-07T12:45:07;23.60;73.10
36924;DHT22;22841;50.252;18.688;2023-09-07T12:47:33;23.60;72.20
36924;DHT22;22841;50.252;18.688;2023-09-07T12:49:59;23.70;72.00
36924;DHT22;22841;50.252;18.688;2023-09-07T12:52:25;23.70;72.20
36924;DHT22;22841;50.252;18.688;2023-09-07T12:54:52;23.70;71.90
36924;DHT22;22841;50.252;18.688;2023-09-07T12:57:18;23.60;73.50
36924;DHT22;22841;50.252;18.688;2023-09-07T12:59:44;23.70;72.20
36924;DHT22;22841;50.252;18.688;2023-09-07T13:02:10;23.80;71.10
36924;DHT22;22841;50.252;18.688;2023-09-07T13:04:36;23.80;71.50
36924;DHT22;22841;50.252;18.688;2023-09-07T13:07:02;23.80;70.40
36924;DHT22;22841;50.252;18.688;2023-09-07T13:09:28;23.90;70.30
36924;DHT22;22841;50.252;18.688;2023-09-07T13:11:54;23.90;71.50
36924;DHT22;22841;50.252;18.688;2023-09-07T13:14:21;23.90;71.40
36924;DHT22;22841;50.252;18.688;2023-09-07T13:16:47;23.80;71.30
36924;DHT22;22841;50.252;18.688;2023-09-07T13:19:13;23.80;72.00
36924;DHT22;22841;50.252;18.688;2023-09-07T13:21:39;23.90;69.30
36924;DHT22;22841;50.252;18.688;2023-09-07T13:24:05;23.90;69.10
36924;DHT22;22841;50.252;18.688;2023-09-07T13:26:31;24.00;67.80
36924;DHT22;22841;50.252;18.688;2023-09-07T13:28:58;23.90;69.50
36924;DHT22;22841;50.252;18.688;2023-09-07T13:31:24;23.90;70.50
36924;DHT22;22841;50.252;18.688;2023-09-07T13:33:50;23.90;69.80
36924;DHT22;22841;50.252;18.688;2023-09-07T13:36:16;23.90;70.30
36924;DHT22;22841;50.252;18.688;2023-09-07T13:38:43;23.90;70.40
36924;DHT22;22841;50.252;18.688;2023-09-07T13:41:09;23.90;69.60
36924;DHT22;22841;50.252;18.688;2023-09-07T13:43:35;23.90;70.50
36924;DHT22;22841;50.252;18.688;2023-09-07T13:46:01;23.90;70.50
36924;DHT22;22841;50.252;18.688;2023-09-07T13:48:28;23.90;70.10
36924;DHT22;22841;50.252;18.688;2023-09-07T13:50:55;23.80;70.60
36924;DHT22;22841;50.252;18.688;2023-09-07T13:53:47;23.90;69.60
36924;DHT22;22841;50.252;18.688;2023-09-07T13:56:16;23.90;70.50
36924;DHT22;22841;50.252;18.688;2023-09-07T13:58:42;23.90;70.80
36924;DHT22;22841;50.252;18.688;2023-09-07T14:01:08;23.90;69.80
36924;DHT22;22841;50.252;18.688;2023-09-07T14:03:34;23.90;69.30
36924;DHT22;22841;50.252;18.688;2023-09-07T14:06:01;23.90;70.30
36924;DHT22;22841;50.252;18.688;2023-09-07T14:08:27;23.90;69.80
36924;DHT22;22841;50.252;18.688;2023-09-07T14:10:54;23.80;70.00
36924;DHT22;22841;50.252;18.688;2023-09-07T14:13:20;23.70;70.90
36924;DHT22;22841;50.252;18.688;2023-09-07T14:15:46;23.80;71.20
36924;DHT22;22841;50.252;18.688;2023-09-07T14:18:12;23.80;70.40
36924;DHT22;22841;50.252;18.688;2023-09-07T14:20:38;23.80;70.30
36924;DHT22;22841;50.252;18.688;2023-09-07T14:23:04;23.90;69.00
36924;DHT22;22841;50.252;18.688;2023-09-07T14:25:31;23.90;69.20
36924;DHT22;22841;50.252;18.688;2023-09-07T14:27:57;23.90;68.60
36924;DHT22;22841;50.252;18.688;2023-09-07T14:30:23;23.80;68.70
36924;DHT22;22841;50.252;18.688;2023-09-07T14:32:49;23.80;68.70
36924;DHT22;22841;50.252;18.688;2023-09-07T14:35:16;23.80;68.00
36924;DHT22;22841;50.252;18.688;2023-09-07T14:37:42;23.80;68.50
36924;DHT22;22841;50.252;18.688;2023-09-07T14:40:08;23.80;68.20
36924;DHT22;22841;50.252;18.688;2023-09-07T14:42:35;23.80;68.30
36924;DHT22;22841;50.252;18.688;2023-09-07T14:45:02;23.70;68.30
36924;DHT22;22841;50.252;18.688;2023-09-07T14:47:29;23.70;69.00
36924;DHT22;22841;50.252;18.688;2023-09-07T14:49:55;23.70;69.40
36924;DHT22;22841;50.252;18.688;2023-09-07T14:52:21;23.70;68.20
36924;DHT22;22841;50.252;18.688;2023-09-07T14:54:50;23.70;69.50
36924;DHT22;22841;50.252;18.688;2023-09-07T14:57:16;23.70;68.40
36924;DHT22;22841;50.252;18.688;2023-09-07T14:59:42;23.60;69.10
36924;DHT22;22841;50.252;18.688;2023-09-07T15:02:09;23.50;69.20
36924;DHT22;22841;50.252;18.688;2023-09-07T15:04:35;23.50;70.30
36924;DHT22;22841;50.252;18.688;2023-09-07T15:07:06;23.50;70.30
36924;DHT22;22841;50.252;18.688;2023-09-07T15:09:32;23.50;70.10
36924;DHT22;22841;50.252;18.688;2023-09-07T15:11:59;23.50;70.50
36924;DHT22;22841;50.252;18.688;2023-09-07T15:14:25;23.50;70.10